sensor_id;sensor_type;location;lat;lon;timestamp;pressure;altitude;pressure_sealevel;temperature;humidity
44441;BME280;30146;52.268;20.944;2023-07-31T00:01:34;99680.33;;;20.07;60.92
44441;BME280;30146;52.268;20.944;2023-07-31T00:04:06;99675.92;;;20.03;60.97
44441;BME280;30146;52.268;20.944;2023-07-31T00:06:37;99678.09;;;19.98;61.13
44441;BME280;30146;52.268;20.944;2023-07-31T00:09:09;99680.26;;;19.94;61.24
44441;BME280;30146;52.268;20.944;2023-07-31T00:11:40;99687.59;;;19.90;61.29
44441;BME280;30146;52.268;20.944;2023-07-31T00:14:11;99687.19;;;19.85;61.36
44441;BME280;30146;52.268;20.944;2023-07-31T00:16:42;99690.39;;;19.81;61.38
44441;BME280;30146;52.268;20.944;2023-07-31T00:19:13;99687.41;;;19.75;61.40
44441;BME280;30146;52.268;20.944;2023-07-31T00:21:44;99689.83;;;19.69;61.48
44441;BME280;30146;52.268;20.944;2023-07-31T00:24:15;99692.44;;;19.63;61.36
44441;BME280;30146;52.268;20.944;2023-07-31T00:26:46;99689.86;;;19.57;61.40
44441;BME280;30146;52.268;20.944;2023-07-31T00:29:16;99689.42;;;19.49;61.44
44441;BME280;30146;52.268;20.944;2023-07-31T00:31:48;99689.30;;;19.45;61.75
44441;BME280;30146;52.268;20.944;2023-07-31T00:34:20;99688.06;;;19.39;61.87
44441;BME280;30146;52.268;20.944;2023-07-31T00:36:50;99687.75;;;19.36;61.84
44441;BME280;30146;52.268;20.944;2023-07-31T00:39:21;99688.29;;;19.32;62.14
44441;BME280;30146;52.268;20.944;2023-07-31T00:41:53;99687.73;;;19.30;62.12
44441;BME280;30146;52.268;20.944;2023-07-31T00:44:24;99683.67;;;19.28;62.20
44441;BME280;30146;52.268;20.944;2023-07-31T00:46:57;99682.90;;;19.26;62.25
44441;BME280;30146;52.268;20.944;2023-07-31T00:49:28;99683.30;;;19.26;62.35
44441;BME280;30146;52.268;20.944;2023-07-31T00:52:00;99676.89;;;19.26;62.41
44441;BME280;30146;52.268;20.944;2023-07-31T00:54:32;99680.02;;;19.25;62.42
44441;BME280;30146;52.268;20.944;2023-07-31T00:57:04;99676.95;;;19.24;62.35
44441;BME280;30146;52.268;20.944;2023-07-31T00:59:37;99668.83;;;19.23;62.42
44441;BME280;30146;52.268;20.944;2023-07-31T01:02:08;99666.45;;;19.22;62.45
44441;BME280;30146;52.268;20.944;2023-07-31T01:04:41;99669.96;;;19.22;62.49
44441;BME280;30146;52.268;20.944;2023-07-31T01:07:17;99674.39;;;19.20;62.54
44441;BME280;30146;52.268;20.944;2023-07-31T01:09:59;99677.57;;;19.19;62.51
44441;BME280;30146;52.268;20.944;2023-07-31T01:12:34;99681.26;;;19.18;62.51
44441;BME280;30146;52.268;20.944;2023-07-31T01:15:16;99680.61;;;19.18;62.61
44441;BME280;30146;52.268;20.944;2023-07-31T01:17:47;99680.70;;;19.16;62.62
44441;BME280;30146;52.268;20.944;2023-07-31T01:20:20;99680.06;;;19.15;62.65
44441;BME280;30146;52.268;20.944;2023-07-31T01:23:22;99677.73;;;19.13;62.82
44441;BME280;30146;52.268;20.944;2023-07-31T01:26:05;99679.92;;;19.12;62.87
44441;BME280;30146;52.268;20.944;2023-07-31T01:28:46;99674.96;;;19.10;62.86
44441;BME280;30146;52.268;20.944;2023-07-31T01:31:22;99682.56;;;19.08;62.91
44441;BME280;30146;52.268;20.944;2023-07-31T01:33:57;99682.13;;;19.06;63.02
44441;BME280;30146;52.268;20.944;2023-07-31T01:36:31;99683.58;;;19.04;63.15
44441;BME280;30146;52.268;20.944;2023-07-31T01:39:03;99685.56;;;19.03;63.15
44441;BME280;30146;52.268;20.944;2023-07-31T01:41:39;99686.32;;;19.02;63.21
44441;BME280;30146;52.268;20.944;2023-07-31T01:44:31;99684.46;;;19.01;63.32
44441;BME280;30146;52.268;20.944;2023-07-31T01:47:03;99686.04;;;19.01;63.26
44441;BME280;30146;52.268;20.944;2023-07-31T01:49:45;99686.64;;;18.99;63.30
44441;BME280;30146;52.268;20.944;2023-07-31T01:52:16;99682.14;;;18.96;63.26
44441;BME280;30146;52.268;20.944;2023-07-31T01:54:47;99686.66;;;18.92;63.24
44441;BME280;30146;52.268;20.944;2023-07-31T01:57:18;99688.21;;;18.89;63.25
44441;BME280;30146;52.268;20.944;2023-07-31T01:59:51;99696.68;;;18.86;63.41
44441;BME280;30146;52.268;20.944;2023-07-31T02:02:24;99695.30;;;18.83;63.39
44441;BME280;30146;52.268;20.944;2023-07-31T02:04:55;99694.23;;;18.80;63.61
44441;BME280;30146;52.268;20.944;2023-07-31T02:07:26;99689.08;;;18.79;63.68
44441;BME280;30146;52.268;20.944;2023-07-31T02:09:58;99687.80;;;18.77;63.76
44441;BME280;30146;52.268;20.944;2023-07-31T02:12:31;99696.58;;;18.75;63.72
44441;BME280;30146;52.268;20.944;2023-07-31T02:15:10;99698.62;;;18.73;63.68
44441;BME280;30146;52.268;20.944;2023-07-31T02:17:41;99695.94;;;18.71;63.81
44441;BME280;30146;52.268;20.944;2023-07-31T02:20:13;99702.08;;;18.70;63.91
44441;BME280;30146;52.268;20.944;2023-07-31T02:22:44;99706.13;;;18.68;63.86
44441;BME280;30146;52.268;20.944;2023-07-31T02:25:16;99708.33;;;18.66;63.94
44441;BME280;30146;52.268;20.944;2023-07-31T02:27:47;99707.91;;;18.63;63.92
44441;BME280;30146;52.268;20.944;2023-07-31T02:30:18;99710.61;;;18.61;64.03
44441;BME280;30146;52.268;20.944;2023-07-31T02:32:49;99708.24;;;18.60;64.07
44441;BME280;30146;52.268;20.944;2023-07-31T02:35:20;99710.23;;;18.59;64.16
44441;BME280;30146;52.268;20.944;2023-07-31T02:37:51;99711.89;;;18.57;64.20
44441;BME280;30146;52.268;20.944;2023-07-31T02:40:22;99718.83;;;18.57;64.36
44441;BME280;30146;52.268;20.944;2023-07-31T02:42:53;99723.52;;;18.56;64.45
44441;BME280;30146;52.268;20.944;2023-07-31T02:45:24;99724.05;;;18.56;64.56
44441;BME280;30146;52.268;20.944;2023-07-31T02:47:55;99718.77;;;18.58;64.59
44441;BME280;30146;52.268;20.944;2023-07-31T02:50:26;99718.54;;;18.59;64.62
44441;BME280;30146;52.268;20.944;2023-07-31T02:52:58;99717.61;;;18.60;64.63
44441;BME280;30146;52.268;20.944;2023-07-31T02:55:29;99709.40;;;18.61;64.73
44441;BME280;30146;52.268;20.944;2023-07-31T02:58:00;99708.46;;;18.63;64.75
44441;BME280;30146;52.268;20.944;2023-07-31T03:00:31;99713.77;;;18.64;64.81
44441;BME280;30146;52.268;20.944;2023-07-31T03:03:02;99719.73;;;18.66;64.81
44441;BME280;30146;52.268;20.944;2023-07-31T03:05:33;99713.73;;;18.68;64.85
44441;BME280;30146;52.268;20.944;2023-07-31T03:08:04;99711.08;;;18.70;64.77
44441;BME280;30146;52.268;20.944;2023-07-31T03:10:35;99711.73;;;18.70;64.79
44441;BME280;30146;52.268;20.944;2023-07-31T03:13:07;99710.98;;;18.71;64.77
44441;BME280;30146;52.268;20.944;2023-07-31T03:15:38;99713.69;;;18.72;64.90
44441;BME280;30146;52.268;20.944;2023-07-31T03:18:09;99712.63;;;18.73;64.80
44441;BME280;30146;52.268;20.944;2023-07-31T03:20:43;99713.75;;;18.74;64.82
44441;BME280;30146;52.268;20.944;2023-07-31T03:23:14;99714.21;;;18.75;64.84
44441;BME280;30146;52.268;20.944;2023-07-31T03:25:58;99718.99;;;18.77;64.74
44441;BME280;30146;52.268;20.944;2023-07-31T03:28:32;99723.23;;;18.78;64.79
44441;BME280;30146;52.268;20.944;2023-07-31T03:31:03;99725.40;;;18.80;64.82
44441;BME280;30146;52.268;20.944;2023-07-31T03:33:34;99726.71;;;18.82;64.84
44441;BME280;30146;52.268;20.944;2023-07-31T03:36:07;99729.86;;;18.84;64.90
44441;BME280;30146;52.268;20.944;2023-07-31T03:38:38;99733.91;;;18.87;64.75
44441;BME280;30146;52.268;20.944;2023-07-31T03:41:09;99735.65;;;18.90;64.79
44441;BME280;30146;52.268;20.944;2023-07-31T03:43:41;99737.58;;;18.93;64.74
44441;BME280;30146;52.268;20.944;2023-07-31T03:46:12;99740.54;;;18.96;64.73
44441;BME280;30146;52.268;20.944;2023-07-31T03:48:43;99743.20;;;18.97;64.66
44441;BME280;30146;52.268;20.944;2023-07-31T03:51:13;99746.79;;;18.98;64.66
44441;BME280;30146;52.268;20.944;2023-07-31T03:53:45;99747.55;;;19.00;64.64
44441;BME280;30146;52.268;20.944;2023-07-31T03:56:15;99748.86;;;19.01;64.59
44441;BME280;30146;52.268;20.944;2023-07-31T03:58:46;99750.02;;;19.02;64.62
44441;BME280;30146;52.268;20.944;2023-07-31T04:01:17;99755.98;;;19.05;64.56
44441;BME280;30146;52.268;20.944;2023-07-31T04:03:49;99756.27;;;19.06;64.58
44441;BME280;30146;52.268;20.944;2023-07-31T04:06:20;99757.71;;;19.08;64.59
44441;BME280;30146;52.268;20.944;2023-07-31T04:08:51;99759.72;;;19.09;64.58
44441;BME280;30146;52.268;20.944;2023-07-31T04:11:21;99760.31;;;19.11;64.63
44441;BME280;30146;52.268;20.944;2023-07-31T04:13:54;99762.95;;;19.13;64.59
44441;BME280;30146;52.268;20.944;2023-07-31T04:16:25;99766.52;;;19.15;64.63
44441;BME280;30146;52.268;20.944;2023-07-31T04:18:56;99767.15;;;19.16;64.49
44441;BME280;30146;52.268;20.944;2023-07-31T04:21:27;99770.17;;;19.17;64.52
44441;BME280;30146;52.268;20.944;2023-07-31T04:23:57;99771.52;;;19.18;64.35
44441;BME280;30146;52.268;20.944;2023-07-31T04:26:28;99772.48;;;19.20;64.31
44441;BME280;30146;52.268;20.944;2023-07-31T04:28:59;99770.55;;;19.20;64.36
44441;BME280;30146;52.268;20.944;2023-07-31T04:31:33;99774.81;;;19.21;64.29
44441;BME280;30146;52.268;20.944;2023-07-31T04:34:20;99777.36;;;19.22;64.23
44441;BME280;30146;52.268;20.944;2023-07-31T04:36:51;99780.20;;;19.24;64.25
44441;BME280;30146;52.268;20.944;2023-07-31T04:39:23;99779.05;;;19.27;64.13
44441;BME280;30146;52.268;20.944;2023-07-31T04:41:57;99777.74;;;19.28;64.24
44441;BME280;30146;52.268;20.944;2023-07-31T04:44:30;99781.03;;;19.32;64.21
44441;BME280;30146;52.268;20.944;2023-07-31T04:47:01;99780.40;;;19.34;64.05
44441;BME280;30146;52.268;20.944;2023-07-31T04:49:32;99781.16;;;19.35;64.09
44441;BME280;30146;52.268;20.944;2023-07-31T04:52:10;99782.45;;;19.37;63.88
44441;BME280;30146;52.268;20.944;2023-07-31T04:54:46;99782.00;;;19.39;63.94
44441;BME280;30146;52.268;20.944;2023-07-31T04:57:17;99783.23;;;19.42;63.93
44441;BME280;30146;52.268;20.944;2023-07-31T04:59:47;99778.61;;;19.44;63.87
44441;BME280;30146;52.268;20.944;2023-07-31T05:02:20;99781.63;;;19.46;63.83
44441;BME280;30146;52.268;20.944;2023-07-31T05:09:05;99781.44;;;19.53;63.76
44441;BME280;30146;52.268;20.944;2023-07-31T05:11:36;99783.53;;;19.55;63.76
44441;BME280;30146;52.268;20.944;2023-07-31T05:14:07;99788.88;;;19.59;63.68
44441;BME280;30146;52.268;20.944;2023-07-31T05:16:38;99790.84;;;19.61;63.67
44441;BME280;30146;52.268;20.944;2023-07-31T05:19:10;99794.52;;;19.64;63.58
44441;BME280;30146;52.268;20.944;2023-07-31T05:21:44;99793.91;;;19.65;63.52
44441;BME280;30146;52.268;20.944;2023-07-31T05:24:15;99795.04;;;19.67;63.51
44441;BME280;30146;52.268;20.944;2023-07-31T05:26:46;99796.71;;;19.68;63.44
44441;BME280;30146;52.268;20.944;2023-07-31T05:29:18;99796.75;;;19.70;63.60
44441;BME280;30146;52.268;20.944;2023-07-31T05:31:49;99800.98;;;19.72;63.42
44441;BME280;30146;52.268;20.944;2023-07-31T05:34:24;99797.50;;;19.73;63.43
44441;BME280;30146;52.268;20.944;2023-07-31T05:36:56;99802.67;;;19.73;63.51
44441;BME280;30146;52.268;20.944;2023-07-31T05:39:27;99808.36;;;19.74;63.50
44441;BME280;30146;52.268;20.944;2023-07-31T05:41:58;99811.26;;;19.75;63.43
44441;BME280;30146;52.268;20.944;2023-07-31T05:44:29;99812.30;;;19.75;63.30
44441;BME280;30146;52.268;20.944;2023-07-31T05:47:00;99812.84;;;19.74;63.32
44441;BME280;30146;52.268;20.944;2023-07-31T05:49:31;99815.45;;;19.74;63.33
44441;BME280;30146;52.268;20.944;2023-07-31T06:04:35;99830.35;;;19.75;63.20
44441;BME280;30146;52.268;20.944;2023-07-31T06:07:07;99832.98;;;19.77;63.17
44441;BME280;30146;52.268;20.944;2023-07-31T06:10:10;99835.98;;;19.79;63.15
44441;BME280;30146;52.268;20.944;2023-07-31T06:12:41;99835.67;;;19.82;63.12
44441;BME280;30146;52.268;20.944;2023-07-31T06:15:12;99843.92;;;19.83;63.10
44441;BME280;30146;52.268;20.944;2023-07-31T06:17:43;99840.75;;;19.84;62.89
44441;BME280;30146;52.268;20.944;2023-07-31T06:20:13;99843.00;;;19.84;62.84
44441;BME280;30146;52.268;20.944;2023-07-31T06:22:46;99847.85;;;19.84;62.89
44441;BME280;30146;52.268;20.944;2023-07-31T06:25:17;99843.73;;;19.84;62.92
44441;BME280;30146;52.268;20.944;2023-07-31T06:30:36;99842.55;;;19.83;63.09
44441;BME280;30146;52.268;20.944;2023-07-31T06:33:07;99843.77;;;19.79;63.06
44441;BME280;30146;52.268;20.944;2023-07-31T06:35:39;99838.81;;;19.78;63.04
44441;BME280;30146;52.268;20.944;2023-07-31T06:38:10;99839.95;;;19.77;63.11
44441;BME280;30146;52.268;20.944;2023-07-31T06:40:41;99843.42;;;19.73;62.97
44441;BME280;30146;52.268;20.944;2023-07-31T06:43:14;99842.16;;;19.71;62.94
44441;BME280;30146;52.268;20.944;2023-07-31T06:45:46;99844.05;;;19.68;63.18
44441;BME280;30146;52.268;20.944;2023-07-31T06:53:03;99854.14;;;19.64;63.55
44441;BME280;30146;52.268;20.944;2023-07-31T06:55:34;99848.21;;;19.65;63.35
44441;BME280;30146;52.268;20.944;2023-07-31T06:58:05;99852.09;;;19.67;63.60
44441;BME280;30146;52.268;20.944;2023-07-31T07:00:36;99847.79;;;19.69;63.55
44441;BME280;30146;52.268;20.944;2023-07-31T07:03:07;99849.40;;;19.72;63.61
44441;BME280;30146;52.268;20.944;2023-07-31T07:05:38;99850.65;;;19.74;63.61
44441;BME280;30146;52.268;20.944;2023-07-31T07:08:09;99847.92;;;19.77;63.63
44441;BME280;30146;52.268;20.944;2023-07-31T07:10:40;99847.88;;;19.81;63.57
44441;BME280;30146;52.268;20.944;2023-07-31T07:13:11;99847.10;;;19.95;63.91
44441;BME280;30146;52.268;20.944;2023-07-31T07:15:43;99843.34;;;20.24;64.64
44441;BME280;30146;52.268;20.944;2023-07-31T07:18:16;99844.09;;;20.56;64.64
44441;BME280;30146;52.268;20.944;2023-07-31T07:20:51;99846.70;;;20.92;64.74
44441;BME280;30146;52.268;20.944;2023-07-31T07:23:23;99851.19;;;21.38;64.91
44441;BME280;30146;52.268;20.944;2023-07-31T07:29:12;99841.92;;;22.39;63.84
44441;BME280;30146;52.268;20.944;2023-07-31T07:31:43;99840.02;;;22.86;63.31
44441;BME280;30146;52.268;20.944;2023-07-31T07:34:16;99838.22;;;23.17;62.30
44441;BME280;30146;52.268;20.944;2023-07-31T07:36:47;99839.71;;;23.48;61.81
44441;BME280;30146;52.268;20.944;2023-07-31T07:39:42;99833.77;;;23.73;61.12
44441;BME280;30146;52.268;20.944;2023-07-31T07:42:13;99835.56;;;24.01;60.31
44441;BME280;30146;52.268;20.944;2023-07-31T07:44:44;99834.39;;;24.24;59.90
44441;BME280;30146;52.268;20.944;2023-07-31T07:52:08;99837.48;;;24.81;58.18
44441;BME280;30146;52.268;20.944;2023-07-31T07:54:39;99843.92;;;24.88;57.48
44441;BME280;30146;52.268;20.944;2023-07-31T07:57:10;99843.30;;;24.92;56.91
44441;BME280;30146;52.268;20.944;2023-07-31T07:59:41;99848.08;;;24.95;56.47
44441;BME280;30146;52.268;20.944;2023-07-31T08:02:12;99851.59;;;25.04;56.47
44441;BME280;30146;52.268;20.944;2023-07-31T08:04:43;99847.23;;;25.17;56.50
44441;BME280;30146;52.268;20.944;2023-07-31T08:11:28;99846.48;;;25.52;55.87
44441;BME280;30146;52.268;20.944;2023-07-31T08:25:52;99832.27;;;26.94;54.31
44441;BME280;30146;52.268;20.944;2023-07-31T08:28:23;99834.99;;;27.20;53.83
44441;BME280;30146;52.268;20.944;2023-07-31T08:31:08;99835.26;;;27.39;52.84
44441;BME280;30146;52.268;20.944;2023-07-31T08:33:51;99838.97;;;27.57;52.94
44441;BME280;30146;52.268;20.944;2023-07-31T08:51:59;99835.83;;;28.50;49.04
44441;BME280;30146;52.268;20.944;2023-07-31T08:54:28;99833.39;;;28.71;48.43
44441;BME280;30146;52.268;20.944;2023-07-31T08:57:05;99838.42;;;28.81;48.46
44441;BME280;30146;52.268;20.944;2023-07-31T08:59:37;99836.45;;;28.87;47.85
44441;BME280;30146;52.268;20.944;2023-07-31T09:02:17;99836.84;;;28.90;47.42
44441;BME280;30146;52.268;20.944;2023-07-31T09:04:53;99835.84;;;28.88;46.85
44441;BME280;30146;52.268;20.944;2023-07-31T09:07:23;99837.32;;;28.85;46.72
44441;BME280;30146;52.268;20.944;2023-07-31T09:13:35;99840.99;;;28.67;45.88
44441;BME280;30146;52.268;20.944;2023-07-31T09:19:15;99836.31;;;28.45;45.24
44441;BME280;30146;52.268;20.944;2023-07-31T09:21:52;99833.73;;;28.33;45.23
44441;BME280;30146;52.268;20.944;2023-07-31T09:24:32;99830.98;;;28.22;45.35
44441;BME280;30146;52.268;20.944;2023-07-31T09:27:07;99832.14;;;28.10;45.33
44441;BME280;30146;52.268;20.944;2023-07-31T09:29:35;99834.68;;;27.97;45.34
44441;BME280;30146;52.268;20.944;2023-07-31T09:32:28;99836.36;;;27.90;45.54
44441;BME280;30146;52.268;20.944;2023-07-31T09:35:00;99837.08;;;27.76;45.16
44441;BME280;30146;52.268;20.944;2023-07-31T09:37:30;99839.43;;;27.61;44.90
44441;BME280;30146;52.268;20.944;2023-07-31T09:39:58;99837.45;;;27.54;44.69
44441;BME280;30146;52.268;20.944;2023-07-31T09:42:27;99834.55;;;27.49;44.99
44441;BME280;30146;52.268;20.944;2023-07-31T09:45:22;99836.88;;;27.45;45.35
44441;BME280;30146;52.268;20.944;2023-07-31T09:48:02;99839.44;;;27.39;45.56
44441;BME280;30146;52.268;20.944;2023-07-31T09:50:30;99841.29;;;27.32;44.93
44441;BME280;30146;52.268;20.944;2023-07-31T10:40:24;99820.73;;;28.21;41.48
44441;BME280;30146;52.268;20.944;2023-07-31T11:12:30;99818.06;;;28.25;39.93
44441;BME280;30146;52.268;20.944;2023-07-31T11:19:02;99824.91;;;27.96;40.39
44441;BME280;30146;52.268;20.944;2023-07-31T11:22:00;99819.66;;;27.86;39.99
44441;BME280;30146;52.268;20.944;2023-07-31T11:24:30;99818.15;;;27.76;40.22
44441;BME280;30146;52.268;20.944;2023-07-31T11:26:58;99817.98;;;27.70;40.34
44441;BME280;30146;52.268;20.944;2023-07-31T11:29:31;99820.77;;;27.60;40.43
44441;BME280;30146;52.268;20.944;2023-07-31T11:32:16;99818.08;;;27.49;40.34
44441;BME280;30146;52.268;20.944;2023-07-31T11:34:52;99815.80;;;27.35;40.25
44441;BME280;30146;52.268;20.944;2023-07-31T11:37:39;99815.80;;;27.22;40.22
44441;BME280;30146;52.268;20.944;2023-07-31T11:40:12;99814.91;;;27.13;40.52
44441;BME280;30146;52.268;20.944;2023-07-31T11:42:49;99813.14;;;27.04;40.31
44441;BME280;30146;52.268;20.944;2023-07-31T11:45:19;99818.89;;;26.95;40.11
44441;BME280;30146;52.268;20.944;2023-07-31T11:47:50;99812.41;;;26.85;39.97
44441;BME280;30146;52.268;20.944;2023-07-31T11:50:21;99809.68;;;26.76;40.02
44441;BME280;30146;52.268;20.944;2023-07-31T11:52:51;99807.82;;;26.66;39.97
44441;BME280;30146;52.268;20.944;2023-07-31T11:55:21;99810.98;;;26.58;40.27
44441;BME280;30146;52.268;20.944;2023-07-31T12:07:06;99801.98;;;26.25;40.85
44441;BME280;30146;52.268;20.944;2023-07-31T12:13:32;99796.77;;;26.14;41.06
44441;BME280;30146;52.268;20.944;2023-07-31T12:16:08;99798.21;;;26.09;40.84
44441;BME280;30146;52.268;20.944;2023-07-31T12:18:39;99798.55;;;26.04;41.17
44441;BME280;30146;52.268;20.944;2023-07-31T12:21:08;99797.52;;;25.97;41.14
44441;BME280;30146;52.268;20.944;2023-07-31T12:23:39;99792.15;;;25.89;41.24
44441;BME280;30146;52.268;20.944;2023-07-31T12:26:11;99789.78;;;25.84;41.44
44441;BME280;30146;52.268;20.944;2023-07-31T12:28:42;99790.86;;;25.80;41.62
44441;BME280;30146;52.268;20.944;2023-07-31T12:31:12;99790.77;;;25.74;41.58
44441;BME280;30146;52.268;20.944;2023-07-31T12:33:41;99788.99;;;25.66;41.14
44441;BME280;30146;52.268;20.944;2023-07-31T12:36:11;99784.59;;;25.58;41.54
44441;BME280;30146;52.268;20.944;2023-07-31T12:38:40;99782.81;;;25.53;42.08
44441;BME280;30146;52.268;20.944;2023-07-31T12:41:08;99779.32;;;25.49;41.84
44441;BME280;30146;52.268;20.944;2023-07-31T12:43:38;99772.41;;;25.44;41.85
44441;BME280;30146;52.268;20.944;2023-07-31T12:46:06;99767.52;;;25.39;42.03
44441;BME280;30146;52.268;20.944;2023-07-31T12:48:36;99765.02;;;25.35;42.07
44441;BME280;30146;52.268;20.944;2023-07-31T12:51:04;99761.36;;;25.31;42.10
44441;BME280;30146;52.268;20.944;2023-07-31T12:53:34;99760.55;;;25.30;42.62
44441;BME280;30146;52.268;20.944;2023-07-31T12:56:03;99761.27;;;25.30;42.34
44441;BME280;30146;52.268;20.944;2023-07-31T12:58:31;99755.04;;;25.29;42.24
44441;BME280;30146;52.268;20.944;2023-07-31T13:00:59;99751.75;;;25.29;42.21
44441;BME280;30146;52.268;20.944;2023-07-31T13:03:34;99747.19;;;25.29;42.50
44441;BME280;30146;52.268;20.944;2023-07-31T13:06:02;99741.14;;;25.28;42.25
44441;BME280;30146;52.268;20.944;2023-07-31T13:08:31;99744.66;;;25.28;42.33
44441;BME280;30146;52.268;20.944;2023-07-31T13:10:59;99740.98;;;25.30;42.72
44441;BME280;30146;52.268;20.944;2023-07-31T13:13:28;99737.14;;;25.32;42.41
44441;BME280;30146;52.268;20.944;2023-07-31T13:16:03;99731.85;;;25.37;42.77
44441;BME280;30146;52.268;20.944;2023-07-31T13:18:31;99728.80;;;25.40;42.11
44441;BME280;30146;52.268;20.944;2023-07-31T13:20:59;99727.54;;;25.40;41.63
44441;BME280;30146;52.268;20.944;2023-07-31T13:23:28;99728.88;;;25.39;41.30
44441;BME280;30146;52.268;20.944;2023-07-31T13:25:56;99723.27;;;25.34;41.40
44441;BME280;30146;52.268;20.944;2023-07-31T13:28:25;99727.67;;;25.30;41.47
44441;BME280;30146;52.268;20.944;2023-07-31T13:30:53;99727.50;;;25.26;41.32
44441;BME280;30146;52.268;20.944;2023-07-31T13:33:21;99725.96;;;25.21;41.13
44441;BME280;30146;52.268;20.944;2023-07-31T13:36:05;99727.17;;;25.12;40.74
44441;BME280;30146;52.268;20.944;2023-07-31T13:38:34;99726.98;;;25.03;40.78
44441;BME280;30146;52.268;20.944;2023-07-31T13:41:02;99725.50;;;24.98;40.98
44441;BME280;30146;52.268;20.944;2023-07-31T13:43:33;99726.71;;;24.93;40.87
44441;BME280;30146;52.268;20.944;2023-07-31T13:46:01;99724.58;;;24.92;40.82
44441;BME280;30146;52.268;20.944;2023-07-31T13:48:35;99721.95;;;24.90;40.61
44441;BME280;30146;52.268;20.944;2023-07-31T13:51:08;99722.48;;;24.85;40.05
44441;BME280;30146;52.268;20.944;2023-07-31T13:53:37;99726.55;;;24.80;40.05
44441;BME280;30146;52.268;20.944;2023-07-31T13:56:06;99724.47;;;24.75;40.49
44441;BME280;30146;52.268;20.944;2023-07-31T13:58:35;99720.05;;;24.71;40.68
44441;BME280;30146;52.268;20.944;2023-07-31T14:01:03;99717.31;;;24.68;40.46
44441;BME280;30146;52.268;20.944;2023-07-31T14:03:32;99717.71;;;24.64;40.17
44441;BME280;30146;52.268;20.944;2023-07-31T14:06:00;99711.40;;;24.59;40.39
44441;BME280;30146;52.268;20.944;2023-07-31T14:08:29;99708.98;;;24.54;40.51
44441;BME280;30146;52.268;20.944;2023-07-31T14:10:57;99711.10;;;24.49;40.47
44441;BME280;30146;52.268;20.944;2023-07-31T14:13:26;99705.20;;;24.44;40.57
44441;BME280;30146;52.268;20.944;2023-07-31T14:15:55;99710.29;;;24.39;40.68
44441;BME280;30146;52.268;20.944;2023-07-31T14:18:23;99702.94;;;24.35;40.64
44441;BME280;30146;52.268;20.944;2023-07-31T14:20:52;99704.09;;;24.31;40.67
44441;BME280;30146;52.268;20.944;2023-07-31T14:23:21;99706.05;;;24.29;40.93
44441;BME280;30146;52.268;20.944;2023-07-31T14:25:50;99701.92;;;24.28;41.44
44441;BME280;30146;52.268;20.944;2023-07-31T14:28:23;99705.00;;;24.28;41.36
44441;BME280;30146;52.268;20.944;2023-07-31T14:30:52;99701.92;;;24.30;41.04
44441;BME280;30146;52.268;20.944;2023-07-31T14:33:20;99697.98;;;24.31;41.14
44441;BME280;30146;52.268;20.944;2023-07-31T14:35:49;99694.71;;;24.33;41.42
44441;BME280;30146;52.268;20.944;2023-07-31T14:38:18;99689.44;;;24.35;41.60
44441;BME280;30146;52.268;20.944;2023-07-31T14:40:46;99689.52;;;24.39;41.46
44441;BME280;30146;52.268;20.944;2023-07-31T14:43:15;99683.54;;;24.42;41.75
44441;BME280;30146;52.268;20.944;2023-07-31T14:45:47;99684.80;;;24.46;41.72
44441;BME280;30146;52.268;20.944;2023-07-31T14:48:16;99682.41;;;24.52;42.10
44441;BME280;30146;52.268;20.944;2023-07-31T14:50:44;99680.73;;;24.58;42.44
44441;BME280;30146;52.268;20.944;2023-07-31T14:53:13;99680.04;;;24.65;42.01
44441;BME280;30146;52.268;20.944;2023-07-31T14:55:42;99679.09;;;24.70;42.23
44441;BME280;30146;52.268;20.944;2023-07-31T14:58:12;99680.50;;;24.72;42.01
44441;BME280;30146;52.268;20.944;2023-07-31T15:00:42;99677.06;;;24.74;42.37
44441;BME280;30146;52.268;20.944;2023-07-31T15:03:10;99677.23;;;24.74;42.48
44441;BME280;30146;52.268;20.944;2023-07-31T15:05:39;99677.86;;;24.72;42.20
44441;BME280;30146;52.268;20.944;2023-07-31T15:08:07;99678.39;;;24.70;42.20
44441;BME280;30146;52.268;20.944;2023-07-31T15:10:36;99677.21;;;24.67;42.10
44441;BME280;30146;52.268;20.944;2023-07-31T15:13:04;99677.01;;;24.63;41.90
44441;BME280;30146;52.268;20.944;2023-07-31T15:15:32;99673.27;;;24.60;42.03
44441;BME280;30146;52.268;20.944;2023-07-31T15:18:01;99670.95;;;24.56;41.81
44441;BME280;30146;52.268;20.944;2023-07-31T15:20:29;99672.16;;;24.51;42.04
44441;BME280;30146;52.268;20.944;2023-07-31T15:22:58;99666.45;;;24.48;42.32
44441;BME280;30146;52.268;20.944;2023-07-31T15:25:51;99665.30;;;24.45;41.90
44441;BME280;30146;52.268;20.944;2023-07-31T15:28:20;99668.15;;;24.42;42.36
44441;BME280;30146;52.268;20.944;2023-07-31T15:30:48;99665.23;;;24.39;42.85
44441;BME280;30146;52.268;20.944;2023-07-31T15:33:17;99662.44;;;24.37;42.96
44441;BME280;30146;52.268;20.944;2023-07-31T15:36:11;99658.16;;;24.35;42.93
44441;BME280;30146;52.268;20.944;2023-07-31T15:38:39;99660.16;;;24.35;42.88
44441;BME280;30146;52.268;20.944;2023-07-31T15:41:07;99658.32;;;24.36;43.02
44441;BME280;30146;52.268;20.944;2023-07-31T15:43:38;99657.44;;;24.38;43.19
44441;BME280;30146;52.268;20.944;2023-07-31T15:46:07;99655.84;;;24.41;43.15
44441;BME280;30146;52.268;20.944;2023-07-31T15:48:35;99651.91;;;24.45;43.43
44441;BME280;30146;52.268;20.944;2023-07-31T15:51:04;99649.58;;;24.47;43.49
44441;BME280;30146;52.268;20.944;2023-07-31T15:53:32;99643.79;;;24.50;43.60
44441;BME280;30146;52.268;20.944;2023-07-31T15:56:10;99640.05;;;24.50;43.38
44441;BME280;30146;52.268;20.944;2023-07-31T15:58:38;99640.78;;;24.50;43.49
44441;BME280;30146;52.268;20.944;2023-07-31T16:01:07;99641.36;;;24.49;43.37